createdAt,value
2023-04-16T00:01:18.869Z,100305.19
2023-04-16T00:03:47.514Z,100306.06
2023-04-16T00:06:15.776Z,100302.53
2023-04-16T00:08:44.211Z,100304.47
2023-04-16T00:11:12.331Z,100308.78
2023-04-16T00:13:41.709Z,100304.34
2023-04-16T00:16:09.806Z,100298.22
2023-04-16T00:18:38.287Z,100299.94
2023-04-16T00:21:07.496Z,100300.88
2023-04-16T00:23:35.954Z,100309.63
2023-04-16T00:26:04.427Z,100305.25
2023-04-16T00:28:32.843Z,100308.78
2023-04-16T00:31:01.876Z,100306.13
2023-04-16T00:33:31.178Z,100297.44
2023-04-16T00:35:59.314Z,100307.06
2023-04-16T00:38:30.514Z,100312.31
2023-04-16T00:40:59.066Z,100316.69
2023-04-16T00:43:27.660Z,100308.78
2023-04-16T00:45:57.339Z,100319.41
2023-04-16T00:48:28.324Z,100303.59
2023-04-16T00:50:56.572Z,100311.50
2023-04-16T00:53:25.050Z,100314.16
2023-04-16T00:55:53.940Z,100316.81
2023-04-16T00:58:22.301Z,100314.16
2023-04-16T01:00:51.014Z,100312.44
2023-04-16T01:03:19.681Z,100306.34
2023-04-16T01:05:49.832Z,100313.38
2023-04-16T01:08:21.769Z,100318.66
2023-04-16T01:10:49.834Z,100320.50
2023-04-16T01:13:18.271Z,100322.19
2023-04-16T01:15:46.437Z,100314.22
2023-04-16T01:18:21.884Z,100315.25
2023-04-16T01:20:51.473Z,100314.38
2023-04-16T01:23:19.949Z,100316.97
2023-04-16T01:25:48.089Z,100309.09
2023-04-16T01:28:16.776Z,100301.19
2023-04-16T01:30:44.906Z,100310.81
2023-04-16T01:33:33.504Z,100315.25
2023-04-16T01:36:01.722Z,100307.34
2023-04-16T01:38:30.144Z,100306.44
2023-04-16T01:40:59.930Z,100306.50
2023-04-16T01:43:28.325Z,100321.50
2023-04-16T01:46:16.176Z,100322.34
2023-04-16T01:48:44.915Z,100317.03
2023-04-16T01:51:13.004Z,100322.41
2023-04-16T01:53:41.364Z,100319.84
2023-04-16T01:56:09.455Z,100319.75
2023-04-16T01:58:38.769Z,100317.13
2023-04-16T02:01:07.123Z,100317.13
2023-04-16T02:03:36.063Z,100317.13
2023-04-16T02:06:05.504Z,100332.19
2023-04-16T02:08:33.877Z,100323.28
2023-04-16T02:11:02.064Z,100326.88
2023-04-16T02:13:30.875Z,100326.00
2023-04-16T02:15:58.968Z,100326.00
2023-04-16T02:18:39.712Z,100327.72
2023-04-16T02:21:08.190Z,100326.94
2023-04-16T02:23:37.580Z,100334.91
2023-04-16T02:26:05.698Z,100326.13
2023-04-16T02:28:34.482Z,100326.94
2023-04-16T02:31:03.104Z,100327.88
2023-04-16T02:33:39.540Z,100326.13
2023-04-16T02:36:08.037Z,100331.44
2023-04-16T02:38:37.758Z,100320.81
2023-04-16T02:41:06.419Z,100333.16
2023-04-16T02:43:36.036Z,100333.16
2023-04-16T02:46:04.233Z,100331.56
2023-04-16T02:48:32.894Z,100331.44
2023-04-16T02:51:01.039Z,100338.63
2023-04-16T02:53:29.660Z,100345.66
2023-04-16T02:55:57.668Z,100341.19
2023-04-16T02:58:26.672Z,100333.31
2023-04-16T03:00:55.451Z,100336.75
2023-04-16T03:03:24.499Z,100342.94
2023-04-16T03:05:52.668Z,100351.81
2023-04-16T03:08:21.264Z,100353.59
2023-04-16T03:10:49.370Z,100357.19
2023-04-16T03:13:17.831Z,100351.22
2023-04-16T03:15:52.281Z,100351.94
2023-04-16T03:18:20.769Z,100362.56
2023-04-16T03:20:54.661Z,100358.13
2023-04-16T03:23:22.992Z,100363.50
2023-04-16T03:25:52.080Z,100364.34
2023-04-16T03:28:20.630Z,100360.84
2023-04-16T03:30:53.041Z,100363.56
2023-04-16T03:33:21.776Z,100362.69
2023-04-16T03:35:56.374Z,100365.28
2023-04-16T03:38:28.241Z,100372.38
2023-04-16T03:40:58.243Z,100377.63
2023-04-16T03:43:27.264Z,100374.28
2023-04-16T03:45:55.264Z,100377.75
2023-04-16T03:48:25.673Z,100376.03
2023-04-16T03:50:55.177Z,100379.59
2023-04-16T03:53:24.053Z,100380.41
2023-04-16T03:55:52.563Z,100378.56
2023-04-16T03:58:22.446Z,100388.31
2023-04-16T04:00:52.204Z,100386.53
2023-04-16T04:03:21.274Z,100379.59
2023-04-16T04:05:51.419Z,100384.78
2023-04-16T04:08:26.442Z,100378.75
2023-04-16T04:10:54.764Z,100385.72
2023-04-16T04:13:25.010Z,100394.56
2023-04-16T04:15:54.130Z,100398.06
2023-04-16T04:18:23.580Z,100399.00
2023-04-16T04:20:52.278Z,100395.50
2023-04-16T04:23:24.581Z,100395.50
2023-04-16T04:25:53.057Z,100406.13
2023-04-16T04:28:21.396Z,100399.97
2023-04-16T04:30:49.534Z,100411.44
2023-04-16T04:33:18.199Z,100407.88
2023-04-16T04:35:46.612Z,100404.44
2023-04-16T04:38:20.015Z,100412.44
2023-04-16T04:40:49.136Z,100417.69
2023-04-16T04:43:20.546Z,100418.63
2023-04-16T04:45:49.677Z,100431.84
2023-04-16T04:48:18.936Z,100430.09
2023-04-16T04:50:47.952Z,100435.31
2023-04-16T04:53:16.464Z,100428.25
2023-04-16T04:55:44.568Z,100432.66
2023-04-16T04:58:12.952Z,100440.63
2023-04-16T05:00:43.216Z,100426.47
2023-04-16T05:03:12.529Z,100438.81
2023-04-16T05:05:41.812Z,100432.75
2023-04-16T05:08:10.148Z,100440.59
2023-04-16T05:10:38.255Z,100447.75
2023-04-16T05:13:06.523Z,100452.19
2023-04-16T05:15:34.558Z,100454.78
2023-04-16T05:18:02.941Z,100462.69
2023-04-16T05:20:31.059Z,100459.38
2023-04-16T05:22:59.418Z,100464.66
2023-04-16T05:25:27.527Z,100471.59
2023-04-16T05:27:56.372Z,100471.59
2023-04-16T05:30:24.409Z,100469.81
2023-04-16T05:32:52.811Z,100477.78
2023-04-16T05:35:21.006Z,100471.66
2023-04-16T05:37:49.275Z,100478.69
2023-04-16T05:40:17.546Z,100484.84
2023-04-16T05:42:45.853Z,100483.94
2023-04-16T05:45:13.842Z,100499.00
2023-04-16T05:47:42.166Z,100502.50
2023-04-16T05:50:10.793Z,100509.63
2023-04-16T05:52:39.182Z,100509.78
2023-04-16T05:55:07.374Z,100510.47
2023-04-16T05:57:36.192Z,100521.09
2023-04-16T06:00:04.686Z,100525.53
2023-04-16T06:02:40.447Z,100526.41
2023-04-16T06:05:08.795Z,100517.50
2023-04-16T06:07:37.154Z,100518.44
2023-04-16T06:10:05.514Z,100523.75
2023-04-16T06:12:33.827Z,100521.75
2023-04-16T06:15:02.067Z,100525.78
2023-04-16T06:17:31.262Z,100516.66
2023-04-16T06:19:59.393Z,100519.16
2023-04-16T06:22:27.824Z,100516.44
2023-04-16T06:24:55.844Z,100522.38
2023-04-16T06:27:24.245Z,100522.38
2023-04-16T06:29:52.248Z,100521.47
2023-04-16T06:32:20.829Z,100531.94
2023-04-16T06:34:48.801Z,100534.59
2023-04-16T06:37:17.250Z,100531.09
2023-04-16T06:39:45.482Z,100532.81
2023-04-16T06:42:13.881Z,100534.53
2023-04-16T06:44:42.024Z,100537.13
2023-04-16T06:47:10.595Z,100528.22
2023-04-16T06:49:40.079Z,100530.16
2023-04-16T06:52:08.537Z,100537.94
2023-04-16T06:54:36.559Z,100539.66
2023-04-16T06:57:05.112Z,100536.94
2023-04-16T06:59:33.115Z,100538.63
2023-04-16T07:02:02.086Z,100540.34
2023-04-16T07:04:30.210Z,100535.91
2023-04-16T07:06:58.718Z,100543.00
2023-04-16T07:09:27.418Z,100539.44
2023-04-16T07:11:55.791Z,100542.09
2023-04-16T07:14:23.865Z,100550.84
2023-04-16T07:16:52.571Z,100543.69
2023-04-16T07:19:21.260Z,100546.28
2023-04-16T07:21:49.893Z,100545.94
2023-04-16T07:24:17.945Z,100542.34
2023-04-16T07:26:46.398Z,100545.94
2023-04-16T07:29:14.400Z,100540.63
2023-04-16T07:31:42.921Z,100538.09
2023-04-16T07:34:11.330Z,100542.34
2023-04-16T07:36:39.633Z,100537.84
2023-04-16T07:39:07.862Z,100544.03
2023-04-16T07:41:36.571Z,100542.94
2023-04-16T07:44:04.850Z,100550.28
2023-04-16T07:46:43.554Z,100552.28
2023-04-16T07:49:15.825Z,100550.75
2023-04-16T07:51:44.405Z,100549.69
2023-04-16T07:54:12.769Z,100553.69
2023-04-16T07:56:41.531Z,100561.22
2023-04-16T07:59:22.046Z,100563.31
2023-04-16T08:01:53.247Z,100567.19
2023-04-16T08:04:26.069Z,100561.91
2023-04-16T08:06:55.039Z,100572.31
2023-04-16T08:09:24.346Z,100566.50
2023-04-16T08:11:52.762Z,100565.28
2023-04-16T08:14:21.017Z,100560.84
2023-04-16T08:16:49.803Z,100565.19
2023-04-16T08:19:17.946Z,100558.09
2023-04-16T08:21:47.185Z,100566.56
2023-04-16T08:24:15.338Z,100564.66
2023-04-16T08:26:43.975Z,100567.00
2023-04-16T08:29:12.090Z,100567.25
2023-04-16T08:31:41.616Z,100571.69
2023-04-16T08:34:11.662Z,100569.72
2023-04-16T08:36:41.326Z,100570.50
2023-04-16T08:39:09.666Z,100562.44
2023-04-16T08:41:42.346Z,100570.31
2023-04-16T08:44:16.276Z,100569.09
2023-04-16T08:46:45.488Z,100570.47
2023-04-16T08:49:20.646Z,100582.59
2023-04-16T08:51:53.857Z,100579.94
2023-04-16T08:54:32.572Z,100584.69
2023-04-16T08:57:02.870Z,100586.59
2023-04-16T08:59:31.065Z,100583.31
2023-04-16T09:02:00.122Z,100577.41
2023-04-16T09:04:29.526Z,100581.44
2023-04-16T09:06:59.195Z,100575.34
2023-04-16T09:09:27.668Z,100572.91
2023-04-16T09:11:56.478Z,100573.66
2023-04-16T09:14:24.854Z,100588.25
2023-04-16T09:16:54.406Z,100577.41
2023-04-16T09:19:23.678Z,100575.28
2023-04-16T09:21:52.622Z,100585.75
2023-04-16T09:24:22.368Z,100580.47
2023-04-16T09:26:52.972Z,100584.16
2023-04-16T09:29:39.805Z,100582.13
2023-04-16T09:32:10.300Z,100582.69
2023-04-16T09:35:10.760Z,100585.31
2023-04-16T09:37:39.060Z,100587.44
2023-04-16T09:40:07.651Z,100590.72
2023-04-16T09:42:37.401Z,100592.88
2023-04-16T09:45:06.317Z,100579.97
2023-04-16T09:47:46.048Z,100588.25
2023-04-16T09:50:19.011Z,100583.06
2023-04-16T09:52:54.287Z,100581.09
2023-04-16T09:55:27.835Z,100587.31
2023-04-16T09:58:01.404Z,100579.44
2023-04-16T10:00:31.587Z,100582.81
2023-04-16T10:03:07.513Z,100574.19
2023-04-16T10:05:35.863Z,100583.50
2023-04-16T10:08:12.266Z,100576.53
2023-04-16T10:10:40.799Z,100575.53
2023-04-16T10:13:09.139Z,100570.66
2023-04-16T10:15:37.183Z,100568.19
2023-04-16T10:18:06.150Z,100576.25
2023-04-16T10:20:34.290Z,100572.44
2023-04-16T10:23:02.580Z,100573.94
2023-04-16T10:25:31.343Z,100565.16
2023-04-16T10:28:00.479Z,100579.25
2023-04-16T10:30:28.605Z,100580.09
2023-04-16T10:32:59.697Z,100565.97
2023-04-16T10:35:28.369Z,100570.97
2023-04-16T10:37:57.914Z,100577.22
2023-04-16T10:40:27.554Z,100569.38
2023-04-16T10:42:57.314Z,100570.88
2023-04-16T10:45:33.074Z,100559.63
2023-04-16T10:48:06.490Z,100558.47
2023-04-16T10:50:36.547Z,100565.38
2023-04-16T10:53:23.804Z,100562.09
2023-04-16T10:55:58.799Z,100562.28
2023-04-16T10:58:30.760Z,100566.38
2023-04-16T11:01:06.614Z,100551.47
2023-04-16T11:03:35.012Z,100544.88
2023-04-16T11:06:17.985Z,100560.81
2023-04-16T11:08:54.624Z,100559.84
2023-04-16T11:11:23.662Z,100549.41
2023-04-16T11:13:57.235Z,100553.41
2023-04-16T11:16:26.463Z,100546.38
2023-04-16T11:18:56.810Z,100532.16
2023-04-16T11:21:25.480Z,100537.59
2023-04-16T11:23:54.065Z,100547.28
2023-04-16T11:26:28.152Z,100534.16
2023-04-16T11:28:57.348Z,100532.41
2023-04-16T11:31:27.432Z,100538.59
2023-04-16T11:33:56.933Z,100544.75
2023-04-16T11:36:27.445Z,100535.00
2023-04-16T11:39:02.478Z,100539.34
2023-04-16T11:41:30.526Z,100530.50
2023-04-16T11:43:59.145Z,100527.50
2023-04-16T11:46:40.321Z,100532.69
2023-04-16T11:49:09.127Z,100538.91
2023-04-16T11:51:42.190Z,100522.47
2023-04-16T11:54:19.482Z,100515.31
2023-04-16T11:56:48.796Z,100521.06
2023-04-16T11:59:23.182Z,100514.22
2023-04-16T12:01:53.669Z,100521.25
2023-04-16T12:04:27.083Z,100513.47
2023-04-16T12:07:11.102Z,100516.06
2023-04-16T12:09:41.712Z,100515.94
2023-04-16T12:12:26.447Z,100522.72
2023-04-16T12:14:57.106Z,100514.09
2023-04-16T12:17:25.613Z,100506.19
2023-04-16T12:19:59.368Z,100512.34
2023-04-16T12:22:31.987Z,100511.50
2023-04-16T12:25:06.243Z,100503.59
2023-04-16T12:27:53.810Z,100502.34
2023-04-16T12:30:24.382Z,100501.19
2023-04-16T12:33:14.514Z,100499.34
2023-04-16T12:35:44.185Z,100484.31
2023-04-16T12:38:12.555Z,100487.59
2023-04-16T12:40:41.595Z,100486.44
2023-04-16T12:43:10.140Z,100490.78
2023-04-16T12:45:39.827Z,100488.31
2023-04-16T12:48:07.969Z,100481.41
2023-04-16T12:50:36.347Z,100481.47
2023-04-16T12:53:04.429Z,100490.59
2023-04-16T12:55:32.743Z,100486.81
2023-04-16T12:58:01.183Z,100491.22
2023-04-16T13:00:29.566Z,100496.53
2023-04-16T13:02:57.765Z,100499.38
2023-04-16T13:05:26.765Z,100482.56
2023-04-16T13:07:54.849Z,100471.41
2023-04-16T13:10:23.726Z,100483.19
2023-04-16T13:12:51.908Z,100480.44
2023-04-16T13:15:20.583Z,100468.97
2023-04-16T13:17:48.709Z,100469.09
2023-04-16T13:20:17.036Z,100467.94
2023-04-16T13:22:45.204Z,100464.41
2023-04-16T13:25:13.611Z,100468.44
2023-04-16T13:27:41.724Z,100460.78
2023-04-16T13:30:10.783Z,100462.78
2023-04-16T13:32:38.907Z,100465.34
2023-04-16T13:35:07.565Z,100480.31
2023-04-16T13:37:35.737Z,100469.31
2023-04-16T13:40:04.504Z,100470.97
2023-04-16T13:42:32.668Z,100468.31
2023-04-16T13:45:01.442Z,100455.09
2023-04-16T13:47:29.678Z,100476.88
2023-04-16T13:50:01.147Z,100466.97
2023-04-16T13:52:29.108Z,100463.22
2023-04-16T13:54:59.626Z,100464.16
2023-04-16T13:57:29.202Z,100463.09
2023-04-16T13:59:57.697Z,100469.78
2023-04-16T14:02:26.840Z,100468.97
2023-04-16T14:04:55.351Z,100468.75
2023-04-16T14:07:27.236Z,100478.88
2023-04-16T14:09:55.606Z,100477.41
2023-04-16T14:12:23.626Z,100467.16
2023-04-16T14:14:51.936Z,100471.69
2023-04-16T14:17:20.013Z,100480.13
2023-04-16T14:19:48.363Z,100480.13
2023-04-16T14:22:18.320Z,100480.25
2023-04-16T14:24:46.714Z,100465.50
2023-04-16T14:27:14.737Z,100475.69
2023-04-16T14:29:43.876Z,100474.06
2023-04-16T14:32:11.929Z,100485.56
2023-04-16T14:34:40.496Z,100473.53
2023-04-16T14:37:08.524Z,100479.13
2023-04-16T14:39:39.146Z,100478.13
2023-04-16T14:42:07.156Z,100483.56
2023-04-16T14:44:35.443Z,100481.94
2023-04-16T14:47:03.426Z,100483.44
2023-04-16T14:49:32.091Z,100479.91
2023-04-16T14:52:02.315Z,100473.53
2023-04-16T14:54:30.604Z,100486.81
2023-04-16T14:56:58.572Z,100479.84
2023-04-16T14:59:27.216Z,100488.81
2023-04-16T15:01:56.943Z,100487.25
2023-04-16T15:04:25.710Z,100490.84
2023-04-16T15:06:55.580Z,100485.47
2023-04-16T15:09:24.004Z,100488.19
2023-04-16T15:11:52.124Z,100490.03
2023-04-16T15:14:21.563Z,100491.75
2023-04-16T15:16:49.779Z,100489.75
2023-04-16T15:19:18.145Z,100498.66
2023-04-16T15:21:47.562Z,100497.66
2023-04-16T15:24:17.243Z,100500.09
2023-04-16T15:26:45.628Z,100494.06
2023-04-16T15:29:14.332Z,100496.09
2023-04-16T15:31:42.322Z,100486.44
2023-04-16T15:34:11.355Z,100488.13
2023-04-16T15:36:39.726Z,100501.97
2023-04-16T15:39:08.764Z,100503.69
2023-04-16T15:41:50.183Z,100501.97
2023-04-16T15:44:27.864Z,100498.50
2023-04-16T15:46:56.057Z,100505.56
2023-04-16T15:49:24.967Z,100506.56
2023-04-16T15:51:56.197Z,100512.78
2023-04-16T15:54:24.692Z,100520.75
2023-04-16T15:56:52.752Z,100520.94
2023-04-16T15:59:21.209Z,100518.34
2023-04-16T16:01:49.382Z,100515.06
2023-04-16T16:04:17.893Z,100526.63
2023-04-16T16:06:46.039Z,100520.47
2023-04-16T16:09:14.520Z,100521.44
2023-04-16T16:11:42.668Z,100520.88
2023-04-16T16:14:11.130Z,100525.19
2023-04-16T16:16:39.984Z,100524.34
2023-04-16T16:19:08.583Z,100526.06
2023-04-16T16:21:37.166Z,100537.38
2023-04-16T16:24:05.688Z,100539.13
2023-04-16T16:26:33.680Z,100536.53
2023-04-16T16:29:02.303Z,100532.00
2023-04-16T16:31:30.679Z,100531.38
2023-04-16T16:33:59.065Z,100537.38
2023-04-16T16:36:27.614Z,100538.00
2023-04-16T16:38:57.181Z,100538.38
2023-04-16T16:41:25.591Z,100543.97
2023-04-16T16:43:56.545Z,100550.72
2023-04-16T16:46:24.783Z,100547.03
2023-04-16T16:48:53.644Z,100557.53
2023-04-16T16:51:21.935Z,100559.13
2023-04-16T16:53:53.429Z,100559.00
2023-04-16T16:56:21.743Z,100560.72
2023-04-16T16:58:50.263Z,100566.88
2023-04-16T17:01:18.647Z,100568.75
2023-04-16T17:03:47.205Z,100567.72
2023-04-16T17:06:15.416Z,100582.69
2023-04-16T17:08:43.912Z,100582.16
2023-04-16T17:11:12.029Z,100583.97
2023-04-16T17:13:40.699Z,100591.94
2023-04-16T17:16:08.977Z,100591.25
2023-04-16T17:18:37.416Z,100588.72
2023-04-16T17:21:05.430Z,100594.84
2023-04-16T17:23:33.802Z,100595.84
2023-04-16T17:26:01.945Z,100600.28
2023-04-16T17:28:30.390Z,100603.81
2023-04-16T17:30:58.540Z,100614.25
2023-04-16T17:33:27.083Z,100614.25
2023-04-16T17:35:55.111Z,100617.75
2023-04-16T17:38:23.516Z,100624.75
2023-04-16T17:40:51.709Z,100632.66
2023-04-16T17:43:20.049Z,100633.38
2023-04-16T17:45:48.125Z,100636.97
2023-04-16T17:48:16.642Z,100637.84
2023-04-16T17:50:44.803Z,100635.13
2023-04-16T17:53:13.218Z,100646.59
2023-04-16T17:55:42.872Z,100648.41
2023-04-16T17:58:11.367Z,100644.03
2023-04-16T18:00:39.418Z,100655.56
2023-04-16T18:03:09.909Z,100663.50
2023-04-16T18:05:38.233Z,100667.00
2023-04-16T18:08:07.348Z,100667.00
2023-04-16T18:10:35.571Z,100664.34
2023-04-16T18:13:04.355Z,100674.88
2023-04-16T18:15:37.063Z,100663.53
2023-04-16T18:18:06.137Z,100665.28
2023-04-16T18:20:34.404Z,100666.03
2023-04-16T18:23:03.226Z,100682.94
2023-04-16T18:25:34.856Z,100675.03
2023-04-16T18:28:05.324Z,100685.72
2023-04-16T18:30:39.847Z,100677.63
2023-04-16T18:33:34.386Z,100688.09
2023-04-16T18:35:57.040Z,100693.44
2023-04-16T18:38:25.820Z,100689.84
2023-04-16T18:40:53.932Z,100682.94
2023-04-16T18:43:22.533Z,100695.03
2023-04-16T18:45:50.593Z,100695.84
2023-04-16T18:48:19.023Z,100699.47
2023-04-16T18:50:47.072Z,100701.22
2023-04-16T18:53:15.523Z,100700.34
2023-04-16T18:55:43.662Z,100703.00
2023-04-16T18:58:12.308Z,100700.34
2023-04-16T19:00:40.564Z,100703.94
2023-04-16T19:03:09.779Z,100699.41
2023-04-16T19:05:37.977Z,100703.00
2023-04-16T19:08:06.745Z,100707.41
2023-04-16T19:10:35.065Z,100708.44
2023-04-16T19:13:03.517Z,100719.00
2023-04-16T19:15:33.164Z,100722.59
2023-04-16T19:18:02.978Z,100718.16
2023-04-16T19:20:34.640Z,100722.59
2023-04-16T19:23:05.769Z,100726.25
2023-04-16T19:25:33.867Z,100730.63
2023-04-16T19:28:03.898Z,100730.63
2023-04-16T19:30:32.216Z,100737.69
2023-04-16T19:33:00.616Z,100732.34
2023-04-16T19:35:30.304Z,100733.28
2023-04-16T19:37:59.117Z,100737.69
2023-04-16T19:40:27.198Z,100735.94
2023-04-16T19:42:55.825Z,100737.72
2023-04-16T19:45:26.130Z,100741.25
2023-04-16T19:47:54.769Z,100745.72
2023-04-16T19:50:24.153Z,100738.47
2023-04-16T19:52:52.500Z,100732.13
2023-04-16T19:55:20.648Z,100742.63
2023-04-16T19:57:49.129Z,100737.03
2023-04-16T20:00:17.537Z,100742.34
2023-04-16T20:02:46.474Z,100743.16
2023-04-16T20:05:14.849Z,100741.47
2023-04-16T20:07:43.379Z,100745.16
2023-04-16T20:10:11.836Z,100737.31
2023-04-16T20:12:40.286Z,100734.78
2023-04-16T20:15:08.876Z,100741.00
2023-04-16T20:17:37.715Z,100742.88
2023-04-16T20:20:12.655Z,100742.88
2023-04-16T20:22:41.793Z,100746.44
2023-04-16T20:25:10.288Z,100734.16
2023-04-16T20:27:38.721Z,100750.91
2023-04-16T20:30:07.354Z,100744.72
2023-04-16T20:32:36.188Z,100743.00
2023-04-16T20:35:05.628Z,100738.66
2023-04-16T20:37:38.387Z,100739.53
2023-04-16T20:40:09.168Z,100737.78
2023-04-16T20:42:37.622Z,100746.56
2023-04-16T20:45:06.195Z,100745.72
2023-04-16T20:47:37.756Z,100739.69
2023-04-16T20:50:06.518Z,100736.09
2023-04-16T20:52:34.823Z,100743.97
2023-04-16T20:55:03.227Z,100742.19
2023-04-16T20:57:32.222Z,100735.13
2023-04-16T21:00:00.315Z,100735.13
2023-04-16T21:02:28.931Z,100734.22
2023-04-16T21:04:57.188Z,100731.72
2023-04-16T21:07:25.610Z,100739.59
2023-04-16T21:09:53.659Z,100741.41
2023-04-16T21:12:22.054Z,100741.41
2023-04-16T21:14:50.078Z,100743.25
2023-04-16T21:17:18.513Z,100738.66
2023-04-16T21:19:46.582Z,100742.19
2023-04-16T21:22:14.933Z,100739.59
2023-04-16T21:24:43.099Z,100737.78
2023-04-16T21:27:11.785Z,100742.19
2023-04-16T21:29:39.874Z,100731.56
2023-04-16T21:32:08.276Z,100735.06
2023-04-16T21:34:36.558Z,100738.59
2023-04-16T21:37:04.995Z,100739.53
2023-04-16T21:39:33.097Z,100746.56
2023-04-16T21:42:01.944Z,100739.69
2023-04-16T21:44:29.886Z,100739.69
2023-04-16T21:46:58.234Z,100736.09
2023-04-16T21:49:26.264Z,100736.88
2023-04-16T21:51:59.437Z,100725.47
2023-04-16T21:54:27.577Z,100737.78
2023-04-16T21:56:56.874Z,100736.00
2023-04-16T21:59:26.205Z,100735.13
2023-04-16T22:01:54.741Z,100732.47
2023-04-16T22:04:26.449Z,100738.66
2023-04-16T22:06:56.527Z,100741.41
2023-04-16T22:09:27.658Z,100734.28
2023-04-16T22:11:57.999Z,100724.50
2023-04-16T22:14:26.401Z,100727.16
2023-04-16T22:16:55.141Z,100723.72
2023-04-16T22:19:23.326Z,100722.81
2023-04-16T22:21:51.767Z,100728.03
2023-04-16T22:24:20.839Z,100723.59
2023-04-16T22:26:49.634Z,100725.31
2023-04-16T22:29:17.693Z,100724.50
2023-04-16T22:31:46.087Z,100725.47
2023-04-16T22:34:14.188Z,100724.50
2023-04-16T22:36:42.570Z,100727.16
2023-04-16T22:39:10.877Z,100719.19
2023-04-16T22:41:39.504Z,100728.91
2023-04-16T22:44:07.549Z,100727.16
2023-04-16T22:46:36.075Z,100722.72
2023-04-16T22:49:04.104Z,100724.50
2023-04-16T22:51:32.560Z,100716.69
2023-04-16T22:54:00.628Z,100720.97
2023-04-16T22:56:30.510Z,100721.84
2023-04-16T22:58:58.599Z,100724.50
2023-04-16T23:01:27.303Z,100721.84
2023-04-16T23:03:55.471Z,100709.53
2023-04-16T23:06:24.047Z,100705.19
2023-04-16T23:08:52.168Z,100709.53
2023-04-16T23:11:20.547Z,100701.56
2023-04-16T23:13:48.553Z,100708.66
2023-04-16T23:16:17.042Z,100699.00
2023-04-16T23:18:45.203Z,100703.34
2023-04-16T23:21:13.574Z,100707.69
2023-04-16T23:23:41.600Z,100709.53
2023-04-16T23:26:09.886Z,100703.34
2023-04-16T23:28:38.020Z,100711.38
2023-04-16T23:31:07.404Z,100713.09
2023-04-16T23:33:36.090Z,100715.75
2023-04-16T23:36:05.288Z,100706.94
2023-04-16T23:38:33.368Z,100701.63
2023-04-16T23:41:01.754Z,100700.69
2023-04-16T23:43:29.911Z,100699.81
2023-04-16T23:45:58.484Z,100698.03
2023-04-16T23:48:26.619Z,100708.72
2023-04-16T23:50:55.011Z,100702.53
2023-04-16T23:53:23.142Z,100691.91
2023-04-16T23:55:52.026Z,100695.44
2023-04-16T23:58:20.030Z,100687.47
